Time;durP1;ratioP1;P1;durP2;ratioP2;P2;SDS_P1;SDS_P2;PMS_P1;PMS_P2;Temp;Humidity;BMP_temperature;BMP_pressure;BME280_temperature;BME280_humidity;BME280_pressure;Samples;Min_cycle;Max_cycle;Signal;HPM_P1;HPM_P2
2021/12/22 00:01:40;;;;;;;0.20;0.20;;;;;;;0.75;63.55;102758.31;5009485;28;20037;-85
2021/12/22 00:04:06;;;;;;;0.20;0.20;;;;;;;0.74;63.62;102762.63;5012683;28;20052;-83
2021/12/22 00:06:34;;;;;;;0.85;0.85;;;;;;;0.74;63.53;102759.13;5002404;28;20026;-78
2021/12/22 00:09:03;;;;;;;0.30;0.30;;;;;;;0.73;63.74;102765.16;5009689;28;20030;-83
2021/12/22 00:11:29;;;;;;;0.20;0.20;;;;;;;0.71;63.71;102758.97;5008575;28;20044;-82
2021/12/22 00:13:55;;;;;;;0.20;0.20;;;;;;;0.70;63.58;102759.78;5006506;28;20029;-86
2021/12/22 00:16:22;;;;;;;0.20;0.20;;;;;;;0.69;63.67;102760.63;5006005;28;20512;-82
2021/12/22 00:18:48;;;;;;;0.20;0.20;;;;;;;0.69;63.71;102755.41;5006601;28;20407;-85
2021/12/22 00:21:14;;;;;;;0.30;0.30;;;;;;;0.68;63.67;102749.25;5006019;28;20030;-82
2021/12/22 00:23:41;;;;;;;0.20;0.20;;;;;;;0.68;63.46;102745.78;5016320;28;20027;-76
2021/12/22 00:26:07;;;;;;;0.50;0.50;;;;;;;0.68;63.05;102754.50;5022926;28;20034;-76
2021/12/22 00:28:33;;;;;;;0.63;0.63;;;;;;;0.66;63.54;102747.41;5018149;28;20036;-79
2021/12/22 00:31:01;;;;;;;0.20;0.20;;;;;;;0.67;63.03;102738.75;5003073;28;20113;-78
2021/12/22 00:33:30;;;;;;;0.20;0.20;;;;;;;0.66;63.60;102737.88;5010910;28;20030;-80
2021/12/22 00:35:56;;;;;;;0.20;0.20;;;;;;;0.66;63.85;102744.78;5010942;28;20117;-81
2021/12/22 00:38:22;;;;;;;0.20;0.20;;;;;;;0.66;63.44;102734.34;5003893;28;20037;-83
2021/12/22 00:40:50;;;;;;;0.20;0.20;;;;;;;0.64;63.89;102734.28;5005318;28;20022;-84
2021/12/22 00:43:17;;;;;;;0.20;0.20;;;;;;;0.63;64.05;102735.97;5003482;28;20466;-82
2021/12/22 00:45:43;;;;;;;0.30;0.30;;;;;;;0.63;64.21;102733.38;5010123;28;20021;-82
2021/12/22 00:48:11;;;;;;;0.20;0.20;;;;;;;0.63;64.00;102730.75;5000168;28;20049;-81
2021/12/22 00:50:39;;;;;;;0.38;0.38;;;;;;;0.62;63.67;102729.00;4996708;28;20030;-79
2021/12/22 00:53:05;;;;;;;0.20;0.20;;;;;;;0.63;63.98;102735.09;5011418;28;20037;-82
2021/12/22 00:55:32;;;;;;;0.25;0.25;;;;;;;0.62;63.48;102728.09;5001249;28;20058;-82
2021/12/22 00:57:58;;;;;;;0.20;0.20;;;;;;;0.61;63.36;102732.41;5002514;28;20065;-82
2021/12/22 01:00:26;;;;;;;0.20;0.20;;;;;;;0.62;63.31;102733.28;5007262;28;20030;-82
2021/12/22 01:02:53;;;;;;;0.25;0.25;;;;;;;0.61;63.63;102736.72;5001080;28;20030;-79
2021/12/22 01:05:20;;;;;;;1.38;1.08;;;;;;;0.60;63.70;102741.06;5009039;28;20037;-80
2021/12/22 01:07:48;;;;;;;0.30;0.30;;;;;;;0.58;64.21;102731.34;5001932;28;20117;-82
2021/12/22 01:10:17;;;;;;;0.20;0.20;;;;;;;0.57;63.67;102729.56;5011096;28;20120;-84
2021/12/22 01:12:43;;;;;;;2.90;1.05;;;;;;;0.56;63.76;102736.50;5002053;28;20090;-81
2021/12/22 01:15:12;;;;;;;0.20;0.20;;;;;;;0.55;63.56;102747.75;5003430;28;20477;-76
2021/12/22 01:17:42;;;;;;;0.20;0.20;;;;;;;0.53;64.01;102738.06;5001349;28;20122;-80
2021/12/22 01:20:20;;;;;;;0.20;0.20;;;;;;;0.54;63.20;102745.94;5008661;28;20465;-79
2021/12/22 01:22:48;;;;;;;0.50;0.50;;;;;;;0.50;63.46;102754.44;5004133;28;20027;-83
2021/12/22 01:25:18;;;;;;;0.35;0.35;;;;;;;0.51;63.33;102758.81;5007690;28;20125;-79
2021/12/22 01:27:45;;;;;;;0.15;0.15;;;;;;;0.49;64.02;102752.66;5004782;28;20042;-81
2021/12/22 01:30:15;;;;;;;0.20;0.20;;;;;;;0.48;63.81;102745.63;5007001;28;20029;-77
2021/12/22 01:32:42;;;;;;;0.20;0.20;;;;;;;0.47;63.86;102746.44;5007168;28;20473;-79
2021/12/22 01:35:11;;;;;;;0.30;0.30;;;;;;;0.46;63.34;102747.25;5012174;28;20042;-80
2021/12/22 01:37:38;;;;;;;0.30;0.30;;;;;;;0.43;64.14;102747.09;5004108;28;20044;-79
2021/12/22 01:40:05;;;;;;;0.20;0.20;;;;;;;0.43;63.82;102742.78;5006584;28;20034;-85
2021/12/22 01:42:32;;;;;;;0.20;0.20;;;;;;;0.41;63.63;102740.91;5010885;28;20029;-84
2021/12/22 01:50:46;;;;;;;0.20;0.20;;;;;;;0.40;63.74;102734.81;5044181;28;20097;-84
2021/12/22 01:53:41;;;;;;;0.20;0.20;;;;;;;0.44;63.40;102734.13;5050368;28;20033;-84
2021/12/22 01:56:23;;;;;;;0.10;0.10;;;;;;;0.37;63.95;102731.13;5047881;28;20048;-82
2021/12/22 01:58:53;;;;;;;0.10;0.10;;;;;;;0.37;63.44;102725.94;5046813;28;20037;-85
2021/12/22 02:01:19;;;;;;;0.20;0.20;;;;;;;0.35;63.75;102722.31;5050948;28;20128;-82
2021/12/22 02:03:49;;;;;;;0.28;0.28;;;;;;;0.36;63.76;102718.91;5046124;28;20041;-81
2021/12/22 02:06:16;;;;;;;0.20;0.20;;;;;;;0.35;64.04;102719.72;5049815;28;20033;-83
2021/12/22 02:08:44;;;;;;;2.55;2.35;;;;;;;0.32;64.01;102721.38;5050999;28;20048;-82
2021/12/22 02:11:13;;;;;;;0.20;0.20;;;;;;;0.33;63.95;102719.66;5051267;28;20476;-82
2021/12/22 02:13:44;;;;;;;0.13;0.13;;;;;;;0.31;64.00;102721.28;5051526;28;20033;-86
2021/12/22 02:16:14;;;;;;;0.20;0.20;;;;;;;0.32;63.70;102721.38;5050674;28;20041;-82
2021/12/22 02:18:46;;;;;;;0.30;0.30;;;;;;;0.34;63.66;102737.09;5051952;28;20037;-83
2021/12/22 02:21:14;;;;;;;0.20;0.20;;;;;;;0.31;63.20;102732.63;5050287;28;20033;-80
2021/12/22 02:23:41;;;;;;;0.20;0.20;;;;;;;0.32;63.67;102733.50;5045745;28;20077;-83
2021/12/22 02:26:13;;;;;;;3.40;0.93;;;;;;;0.30;63.39;102741.25;5046956;28;20037;-80
2021/12/22 02:28:44;;;;;;;0.20;0.20;;;;;;;0.30;63.51;102735.16;5050179;28;20041;-84
2021/12/22 02:31:15;;;;;;;0.20;0.20;;;;;;;0.29;63.78;102738.56;5039893;28;20025;-79
2021/12/22 02:33:43;;;;;;;0.50;0.50;;;;;;;0.29;63.71;102734.22;5039295;28;20089;-83
2021/12/22 02:36:22;;;;;;;0.10;0.10;;;;;;;0.27;63.08;102730.63;5041999;28;20037;-81
2021/12/22 02:38:52;;;;;;;0.95;0.95;;;;;;;0.26;63.64;102734.09;5050685;28;20037;-82
2021/12/22 02:41:21;;;;;;;0.10;0.10;;;;;;;0.26;63.35;102741.00;5045406;28;20061;-81
2021/12/22 02:43:51;;;;;;;0.30;0.30;;;;;;;0.25;63.23;102742.72;5038523;28;20064;-82
2021/12/22 02:46:23;;;;;;;5.28;2.35;;;;;;;0.26;63.67;102744.53;5043177;28;20370;-80
2021/12/22 02:48:50;;;;;;;0.13;0.13;;;;;;;0.23;63.75;102741.72;5050820;28;20414;-81
2021/12/22 02:51:18;;;;;;;6.55;3.60;;;;;;;0.22;63.70;102747.75;5042598;28;20063;-78
2021/12/22 02:56:39;;;;;;;0.20;0.20;;;;;;;0.20;63.35;102746.78;5058778;28;20425;-79
2021/12/22 03:02:11;;;;;;;0.20;0.20;;;;;;;0.17;63.48;102753.56;5076458;28;20414;-84
2021/12/22 03:04:51;;;;;;;0.10;0.10;;;;;;;0.18;63.37;102758.84;5069766;28;20036;-85
2021/12/22 03:07:19;;;;;;;0.40;0.40;;;;;;;0.15;62.76;102756.09;5054627;28;20030;-84
2021/12/22 03:09:52;;;;;;;0.63;0.63;;;;;;;0.14;63.24;102749.06;5070797;28;20085;-83
2021/12/22 03:12:21;;;;;;;0.20;0.20;;;;;;;0.14;63.14;102746.47;5066248;28;20039;-81
2021/12/22 03:14:47;;;;;;;0.20;0.20;;;;;;;0.14;63.51;102749.06;5067211;28;20089;-82
2021/12/22 03:17:13;;;;;;;0.20;0.20;;;;;;;0.12;63.25;102751.56;5056086;28;20104;-85
2021/12/22 03:19:39;;;;;;;0.40;0.40;;;;;;;0.12;63.39;102746.34;5066526;28;20029;-83
2021/12/22 03:22:10;;;;;;;0.20;0.20;;;;;;;0.13;63.61;102742.06;5060303;28;20096;-78
2021/12/22 03:24:38;;;;;;;0.20;0.20;;;;;;;0.13;63.44;102736.84;5059622;28;20075;-78
2021/12/22 03:27:07;;;;;;;0.93;0.93;;;;;;;0.11;63.44;102731.56;5053187;28;20063;-79
2021/12/22 03:29:35;;;;;;;0.20;0.20;;;;;;;0.12;63.42;102730.72;5065659;28;20039;-83
2021/12/22 03:32:02;;;;;;;0.20;0.20;;;;;;;0.10;63.17;102726.25;5065465;28;20033;-84
2021/12/22 03:34:28;;;;;;;0.32;0.32;;;;;;;0.10;62.75;102721.03;5062721;28;20049;-84
2021/12/22 03:36:55;;;;;;;1.95;0.95;;;;;;;0.09;62.83;102720.16;5068402;28;20040;-82
2021/12/22 03:39:21;;;;;;;0.95;0.95;;;;;;;0.09;63.54;102721.88;5057366;28;20041;-83
2021/12/22 03:41:48;;;;;;;0.20;0.20;;;;;;;0.10;63.61;102721.03;5064143;28;20401;-85
2021/12/22 03:44:15;;;;;;;0.20;0.20;;;;;;;0.11;63.87;102715.91;5066823;28;20032;-81
2021/12/22 03:46:41;;;;;;;3.42;3.13;;;;;;;0.12;63.67;102719.41;5064669;28;20055;-84
2021/12/22 03:49:10;;;;;;;0.40;0.40;;;;;;;0.15;63.32;102719.59;5057448;28;20502;-85
2021/12/22 03:51:37;;;;;;;0.20;0.20;;;;;;;0.16;63.23;102716.13;5060825;28;20039;-82
2021/12/22 03:54:05;;;;;;;0.20;0.20;;;;;;;0.18;63.92;102714.53;5064436;28;20029;-81
2021/12/22 03:56:31;;;;;;;1.85;1.15;;;;;;;0.20;63.75;102717.19;5066136;28;20095;-82
2021/12/22 03:58:57;;;;;;;0.40;0.40;;;;;;;0.21;63.30;102716.41;5052535;28;20403;-84
2021/12/22 04:01:23;;;;;;;0.20;0.20;;;;;;;0.21;64.07;102719.88;5065166;28;20028;-85
2021/12/22 04:03:53;;;;;;;0.20;0.20;;;;;;;0.24;64.09;102724.41;5058516;28;20033;-84
2021/12/22 04:06:20;;;;;;;0.20;0.20;;;;;;;0.24;63.99;102714.84;5064293;28;20062;-84
2021/12/22 04:08:46;;;;;;;0.20;0.20;;;;;;;0.24;63.58;102703.53;5056420;28;20029;-81
2021/12/22 04:11:12;;;;;;;0.20;0.20;;;;;;;0.24;63.49;102704.41;5052632;28;20033;-80
2021/12/22 04:13:38;;;;;;;0.20;0.20;;;;;;;0.24;63.71;102704.41;5053128;28;20087;-80
2021/12/22 04:16:05;;;;;;;0.30;0.30;;;;;;;0.25;63.37;102698.41;5065801;28;20039;-78
2021/12/22 04:18:31;;;;;;;0.20;0.20;;;;;;;0.27;63.13;102707.16;5063404;28;20076;-84
2021/12/22 04:20:57;;;;;;;0.20;0.20;;;;;;;0.27;63.94;102709.78;5048922;28;20029;-84
2021/12/22 04:23:23;;;;;;;0.52;0.52;;;;;;;0.28;63.75;102695.06;5047696;28;20044;-82
2021/12/22 04:25:50;;;;;;;0.20;0.20;;;;;;;0.29;63.83;102697.72;5044067;28;20025;-81
2021/12/22 04:28:16;;;;;;;0.20;0.20;;;;;;;0.29;63.67;102692.50;5042559;28;20427;-79
2021/12/22 04:30:47;;;;;;;1.85;1.75;;;;;;;0.30;63.74;102689.09;5045747;28;20039;-81
2021/12/22 04:33:14;;;;;;;0.10;0.10;;;;;;;0.28;63.92;102680.28;5043838;28;20105;-80
2021/12/22 04:35:41;;;;;;;0.93;0.93;;;;;;;0.28;63.33;102680.28;5040706;28;20030;-80
2021/12/22 04:38:07;;;;;;;0.20;0.20;;;;;;;0.29;63.00;102676.00;5047148;28;20021;-83
2021/12/22 04:40:34;;;;;;;0.20;0.20;;;;;;;0.27;63.30;102678.50;5044957;28;20032;-83
2021/12/22 04:43:00;;;;;;;0.10;0.10;;;;;;;0.27;63.53;102681.09;5041958;28;20033;-85
2021/12/22 04:45:26;;;;;;;0.20;0.20;;;;;;;0.27;63.20;102680.22;5046569;28;20043;-81
2021/12/22 04:47:53;;;;;;;0.20;0.20;;;;;;;0.24;63.01;102683.56;5053227;28;20162;-81
2021/12/22 04:50:21;;;;;;;0.20;0.20;;;;;;;0.23;62.91;102676.56;5046071;28;20048;-78
2021/12/22 04:55:33;;;;;;;0.10;0.10;;;;;;;0.21;62.53;102672.97;5080618;28;20433;-78
2021/12/22 04:58:00;;;;;;;0.20;0.20;;;;;;;0.19;62.46;102664.19;5068461;28;20495;-79
2021/12/22 05:00:32;;;;;;;0.10;0.10;;;;;;;0.20;62.65;102671.19;5054821;28;20115;-82
2021/12/22 05:02:58;;;;;;;0.20;0.20;;;;;;;0.15;62.57;102675.28;5058399;28;20028;-85
2021/12/22 05:05:29;;;;;;;0.20;0.20;;;;;;;0.13;63.00;102679.50;5052532;28;20033;-78
2021/12/22 05:07:55;;;;;;;0.20;0.20;;;;;;;0.12;62.80;102675.09;5064960;28;20040;-83
2021/12/22 05:10:22;;;;;;;0.15;0.15;;;;;;;0.11;62.77;102665.47;5055174;28;20033;-82
2021/12/22 05:12:49;;;;;;;0.20;0.20;;;;;;;0.08;62.62;102663.63;5064227;28;20144;-82
2021/12/22 05:15:19;;;;;;;0.65;0.65;;;;;;;0.08;62.57;102665.34;5055060;28;20033;-77
2021/12/22 05:20:30;;;;;;;0.20;0.20;;;;;;;0.02;62.47;102662.41;5085480;27;20422;-79
2021/12/22 05:22:56;;;;;;;0.35;0.35;;;;;;;-0.01;62.52;102655.31;5064677;28;20057;-79
2021/12/22 05:25:22;;;;;;;0.47;0.47;;;;;;;-0.05;62.88;102648.13;5058064;28;20037;-80
2021/12/22 05:27:48;;;;;;;1.45;1.45;;;;;;;-0.07;62.33;102652.41;5063834;28;20035;-80
2021/12/22 05:30:15;;;;;;;0.20;0.20;;;;;;;-0.07;63.07;102655.00;5067535;28;20155;-81
2021/12/22 05:32:41;;;;;;;0.20;0.20;;;;;;;-0.08;63.38;102659.28;5068390;28;20036;-83
2021/12/22 05:35:09;;;;;;;0.20;0.20;;;;;;;-0.06;63.35;102670.72;5067224;28;20056;-83
2021/12/22 05:37:36;;;;;;;0.20;0.20;;;;;;;-0.05;63.68;102668.97;5055159;28;20025;-84
2021/12/22 05:40:05;;;;;;;0.52;0.52;;;;;;;-0.04;63.08;102660.34;5066168;28;20029;-80
2021/12/22 05:42:31;;;;;;;1.17;1.08;;;;;;;-0.02;63.40;102653.53;5061269;28;20033;-83
2021/12/22 05:44:57;;;;;;;0.68;0.65;;;;;;;0.01;63.72;102663.22;5055805;28;20033;-85
2021/12/22 05:47:23;;;;;;;1.10;1.10;;;;;;;-0.01;63.87;102658.81;5067033;28;20037;-84
2021/12/22 05:49:49;;;;;;;0.10;0.10;;;;;;;0.01;63.68;102658.00;5056055;28;20033;-83
2021/12/22 05:52:16;;;;;;;0.20;0.20;;;;;;;0.00;63.69;102659.72;5060920;28;20056;-81
2021/12/22 05:54:42;;;;;;;0.65;0.65;;;;;;;0.00;63.53;102667.56;5070109;28;20487;-83
2021/12/22 05:57:09;;;;;;;0.22;0.22;;;;;;;0.02;63.76;102675.44;5061047;28;20030;-81
2021/12/22 05:59:35;;;;;;;0.20;0.20;;;;;;;0.02;63.72;102665.91;5060954;28;20025;-83
2021/12/22 06:02:01;;;;;;;0.10;0.10;;;;;;;0.00;63.70;102662.34;5065945;28;20041;-84
2021/12/22 06:04:27;;;;;;;0.85;0.85;;;;;;;-0.01;63.42;102661.41;5065582;28;20025;-83
2021/12/22 06:06:54;;;;;;;0.43;0.43;;;;;;;0.00;63.88;102662.34;5055400;28;20083;-80
2021/12/22 06:09:20;;;;;;;0.20;0.20;;;;;;;0.01;63.51;102663.22;5065213;28;21437;-82
2021/12/22 06:11:46;;;;;;;0.20;0.20;;;;;;;0.02;63.79;102670.22;5058331;28;20048;-79
2021/12/22 06:14:12;;;;;;;0.20;0.20;;;;;;;0.01;64.05;102668.44;5061590;28;20036;-81
2021/12/22 06:16:38;;;;;;;0.10;0.10;;;;;;;0.00;63.74;102667.56;5056164;28;20033;-82
2021/12/22 06:19:08;;;;;;;0.30;0.30;;;;;;;-0.02;64.07;102667.44;5058456;28;20404;-78
2021/12/22 06:21:35;;;;;;;0.20;0.20;;;;;;;-0.03;63.87;102668.25;5061952;28;20168;-81
2021/12/22 06:24:02;;;;;;;0.20;0.20;;;;;;;-0.04;63.51;102656.06;5060439;28;20104;-78
2021/12/22 06:26:28;;;;;;;0.10;0.10;;;;;;;-0.06;64.46;102652.47;5058455;28;20488;-81
2021/12/22 06:28:54;;;;;;;2.45;1.85;;;;;;;-0.07;64.40;102661.09;5055990;28;20041;-82
2021/12/22 06:31:20;;;;;;;0.20;0.20;;;;;;;-0.08;64.59;102651.47;5055043;28;20106;-84
2021/12/22 06:33:46;;;;;;;0.30;0.30;;;;;;;-0.07;64.25;102650.66;5046365;28;20033;-83
2021/12/22 06:36:12;;;;;;;0.20;0.20;;;;;;;-0.07;64.61;102653.28;5036946;28;20107;-81
2021/12/22 06:38:39;;;;;;;0.25;0.25;;;;;;;-0.05;64.20;102642.94;5048939;28;20029;-79
2021/12/22 06:41:06;;;;;;;0.20;0.20;;;;;;;-0.09;64.15;102652.28;5053978;28;20033;-84
2021/12/22 06:43:32;;;;;;;0.20;0.20;;;;;;;-0.08;64.74;102658.41;5052150;28;20029;-83
2021/12/22 06:45:58;;;;;;;0.20;0.20;;;;;;;-0.09;64.64;102654.00;5052243;28;20112;-85
2021/12/22 06:48:24;;;;;;;4.72;1.98;;;;;;;-0.08;64.62;102658.41;5049190;28;20041;-82
2021/12/22 06:50:50;;;;;;;0.20;0.20;;;;;;;-0.08;64.92;102664.50;5051236;28;20028;-80
2021/12/22 06:53:16;;;;;;;0.30;0.30;;;;;;;-0.05;64.58;102658.56;5048305;28;20040;-81
2021/12/22 06:55:42;;;;;;;0.38;0.38;;;;;;;-0.03;64.24;102668.25;5048471;28;20034;-82
2021/12/22 06:58:09;;;;;;;0.20;0.20;;;;;;;-0.04;64.63;102671.69;5052892;28;20037;-83
2021/12/22 07:00:36;;;;;;;0.50;0.50;;;;;;;-0.02;64.66;102663.94;5053698;28;20523;-79
2021/12/22 07:03:05;;;;;;;0.30;0.30;;;;;;;-0.01;64.15;102661.41;5053405;28;20068;-81
2021/12/22 07:05:31;;;;;;;0.10;0.10;;;;;;;0.01;64.36;102661.50;5047969;28;20025;-81
2021/12/22 07:07:58;;;;;;;0.20;0.20;;;;;;;0.01;64.39;102652.78;5053589;28;20079;-84
2021/12/22 07:10:24;;;;;;;0.20;0.20;;;;;;;0.02;64.42;102662.41;5054821;28;20033;-84
2021/12/22 07:12:50;;;;;;;1.05;1.05;;;;;;;0.02;64.45;102659.81;5047549;28;20384;-81
2021/12/22 07:15:18;;;;;;;0.20;0.20;;;;;;;0.01;64.68;102661.50;5045164;28;20099;-78
2021/12/22 07:17:47;;;;;;;0.10;0.10;;;;;;;0.01;64.76;102655.41;5040655;28;20129;-81
2021/12/22 07:20:14;;;;;;;0.20;0.20;;;;;;;-0.02;64.51;102649.19;5052776;28;20037;-83
2021/12/22 07:22:41;;;;;;;0.35;0.35;;;;;;;-0.03;64.47;102654.34;5047880;28;20032;-80
2021/12/22 07:25:08;;;;;;;0.65;0.65;;;;;;;-0.02;64.39;102643.97;5053411;28;20074;-79
2021/12/22 07:27:34;;;;;;;2.40;2.30;;;;;;;-0.03;64.20;102647.41;5051409;28;20033;-79
2021/12/22 07:30:01;;;;;;;0.30;0.30;;;;;;;-0.02;64.62;102643.09;5045979;28;20044;-81
2021/12/22 07:32:27;;;;;;;0.17;0.17;;;;;;;-0.02;64.31;102637.91;5044678;28;20036;-83
2021/12/22 07:35:15;;;;;;;0.10;0.10;;;;;;;0.02;64.49;102638.94;5040057;28;20043;-83
2021/12/22 07:40:20;;;;;;;0.20;0.20;;;;;;;-0.03;64.35;102642.19;5053019;27;20448;-82
2021/12/22 07:42:46;;;;;;;0.20;0.20;;;;;;;-0.02;64.53;102632.69;5029315;28;20034;-81
2021/12/22 07:45:13;;;;;;;0.20;0.20;;;;;;;-0.02;64.63;102637.91;5025205;28;20065;-80
2021/12/22 07:47:39;;;;;;;0.20;0.20;;;;;;;-0.03;64.45;102634.38;5024645;28;20026;-83
2021/12/22 07:50:07;;;;;;;0.10;0.10;;;;;;;-0.03;64.88;102633.50;5026919;28;20187;-83
2021/12/22 07:52:33;;;;;;;0.30;0.30;;;;;;;-0.04;64.03;102637.81;5027844;28;20042;-80
2021/12/22 07:55:00;;;;;;;0.10;0.10;;;;;;;-0.05;64.51;102633.41;5037798;28;20117;-80
2021/12/22 07:57:27;;;;;;;0.30;0.30;;;;;;;-0.04;64.08;102644.72;5012229;28;20036;-81
2021/12/22 07:59:53;;;;;;;0.10;0.10;;;;;;;-0.03;64.32;102647.41;5029182;28;20038;-81
2021/12/22 08:02:19;;;;;;;1.10;1.10;;;;;;;-0.04;64.34;102645.63;5042583;28;20099;-81
2021/12/22 08:04:45;;;;;;;0.30;0.30;;;;;;;-0.02;64.30;102643.97;5039207;28;20040;-81
2021/12/22 08:07:11;;;;;;;0.43;0.43;;;;;;;-0.01;64.84;102645.78;5036058;28;20117;-79
2021/12/22 08:09:38;;;;;;;0.15;0.15;;;;;;;-0.03;64.73;102657.81;5029063;28;20029;-82
2021/12/22 08:12:05;;;;;;;0.20;0.20;;;;;;;0.01;64.29;102647.59;5039919;28;20042;-79
2021/12/22 08:14:33;;;;;;;1.23;1.23;;;;;;;0.03;63.88;102651.16;5051600;28;20034;-83
2021/12/22 08:17:00;;;;;;;2.60;2.40;;;;;;;0.04;64.13;102652.94;5023101;28;20053;-81
2021/12/22 08:19:26;;;;;;;0.20;0.20;;;;;;;0.07;64.48;102655.72;5027719;28;20030;-81
2021/12/22 08:21:52;;;;;;;0.28;0.28;;;;;;;0.08;64.36;102657.53;5032297;28;20025;-80
2021/12/22 08:24:19;;;;;;;0.20;0.20;;;;;;;0.12;64.47;102649.03;5028286;28;20040;-82
2021/12/22 08:26:45;;;;;;;0.20;0.20;;;;;;;0.12;64.22;102646.44;5022431;28;20030;-84
2021/12/22 08:29:11;;;;;;;2.83;2.63;;;;;;;0.11;64.40;102645.53;5021289;28;20030;-83
2021/12/22 08:31:37;;;;;;;0.20;0.20;;;;;;;0.14;64.61;102644.81;5030000;28;20033;-77
2021/12/22 08:34:04;;;;;;;0.20;0.20;;;;;;;0.16;64.71;102643.16;5030817;28;20021;-81
2021/12/22 08:39:17;;;;;;;0.20;0.20;;;;;;;0.18;64.96;102646.75;5020139;28;20493;-85
2021/12/22 08:41:47;;;;;;;0.40;0.40;;;;;;;0.21;64.45;102638.19;5027311;28;20045;-84
2021/12/22 08:44:18;;;;;;;0.20;0.20;;;;;;;0.27;64.30;102642.00;5023942;28;20038;-84
2021/12/22 08:46:48;;;;;;;0.20;0.20;;;;;;;0.31;64.91;102643.97;5027225;28;20053;-82
2021/12/22 08:49:16;;;;;;;1.85;1.45;;;;;;;0.31;64.27;102633.53;5028786;28;20068;-84
2021/12/22 08:51:43;;;;;;;0.20;0.20;;;;;;;0.36;64.44;102632.88;5011665;28;20026;-85
2021/12/22 08:54:09;;;;;;;0.10;0.10;;;;;;;0.38;63.95;102631.25;5014754;28;20042;-83
2021/12/22 08:56:36;;;;;;;0.20;0.20;;;;;;;0.41;64.61;102623.56;5013709;28;20045;-84
2021/12/22 08:59:04;;;;;;;0.17;0.17;;;;;;;0.46;64.35;102627.28;5009647;28;20041;-86
2021/12/22 09:01:31;;;;;;;0.20;0.20;;;;;;;0.51;64.27;102631.00;5011341;28;20038;-86
2021/12/22 09:03:58;;;;;;;0.20;0.20;;;;;;;0.55;64.10;102630.38;5012483;28;20049;-84
2021/12/22 09:06:25;;;;;;;0.20;0.20;;;;;;;0.63;64.50;102629.03;5015686;28;20538;-85
2021/12/22 09:08:52;;;;;;;0.85;0.85;;;;;;;0.67;64.28;102626.59;5016115;28;20041;-86
2021/12/22 09:11:19;;;;;;;0.10;0.10;;;;;;;0.74;64.69;102629.56;5028215;28;20033;-85
2021/12/22 09:13:45;;;;;;;0.10;0.10;;;;;;;0.82;64.17;102622.09;5025038;28;20035;-86
2021/12/22 09:16:12;;;;;;;0.20;0.20;;;;;;;0.91;64.33;102626.88;5023760;28;20056;-84
2021/12/22 09:18:39;;;;;;;0.20;0.20;;;;;;;0.96;64.48;102630.63;5016125;28;20022;-83
2021/12/22 09:21:07;;;;;;;0.40;0.40;;;;;;;1.04;64.24;102633.59;5013428;28;20037;-81
2021/12/22 09:23:34;;;;;;;0.20;0.20;;;;;;;1.10;64.22;102640.00;5011659;28;20030;-84
2021/12/22 09:26:00;;;;;;;0.20;0.20;;;;;;;1.17;64.31;102641.16;5014967;28;20052;-85
2021/12/22 09:28:26;;;;;;;0.20;0.20;;;;;;;1.21;64.04;102643.13;5015277;28;20496;-85
2021/12/22 09:30:52;;;;;;;0.20;0.20;;;;;;;1.26;64.16;102636.41;5012702;28;20026;-84
2021/12/22 09:33:20;;;;;;;0.20;0.20;;;;;;;1.32;63.64;102634.91;5012440;28;20093;-81
2021/12/22 09:35:49;;;;;;;2.72;0.93;;;;;;;1.34;63.92;102631.53;5010263;28;20030;-83
2021/12/22 09:38:15;;;;;;;0.30;0.30;;;;;;;1.38;63.81;102629.97;5007136;28;20037;-79
2021/12/22 09:40:42;;;;;;;0.15;0.15;;;;;;;1.38;63.65;102619.53;5013262;28;20041;-81
2021/12/22 09:43:09;;;;;;;0.20;0.20;;;;;;;1.41;64.10;102620.56;5014503;28;20083;-84
2021/12/22 09:45:41;;;;;;;0.20;0.20;;;;;;;1.43;64.04;102623.22;5011844;28;20057;-84
2021/12/22 09:50:55;;;;;;;0.10;0.10;;;;;;;1.50;63.89;102635.75;4920088;27;4663516;-87
2021/12/22 09:53:23;;;;;;;0.15;0.15;;;;;;;1.51;64.11;102631.41;5064430;28;20037;-87
2021/12/22 09:55:50;;;;;;;0.10;0.10;;;;;;;1.54;63.87;102631.56;5058847;28;20476;-85
2021/12/22 09:58:17;;;;;;;0.15;0.15;;;;;;;1.57;64.14;102627.38;5070717;28;20074;-87
2021/12/22 10:00:46;;;;;;;0.17;0.17;;;;;;;1.66;64.27;102628.63;5070081;28;20107;-87
2021/12/22 10:03:13;;;;;;;0.52;0.52;;;;;;;1.73;64.21;102634.22;5065033;28;20032;-87
2021/12/22 10:05:42;;;;;;;0.13;0.13;;;;;;;1.83;64.39;102624.16;5067473;28;20040;-86
2021/12/22 10:08:12;;;;;;;1.25;1.25;;;;;;;1.94;64.51;102628.13;5068976;28;20028;-87
2021/12/22 10:10:41;;;;;;;0.20;0.20;;;;;;;2.04;64.41;102622.47;5060365;28;20064;-82
2021/12/22 10:13:14;;;;;;;1.42;1.42;;;;;;;2.13;64.22;102624.63;5051751;28;20124;-81
2021/12/22 10:15:41;;;;;;;0.10;0.10;;;;;;;2.14;64.03;102615.94;5067984;28;20029;-87
2021/12/22 10:20:48;;;;;;;0.20;0.20;;;;;;;2.29;64.16;102620.94;5055106;23;20045;-88
2021/12/22 10:23:31;;;;;;;0.10;0.10;;;;;;;2.44;64.06;102620.69;5049915;28;20080;-87
2021/12/22 10:26:04;;;;;;;0.20;0.20;;;;;;;2.47;64.08;102618.22;5047602;28;20033;-89
2021/12/22 10:28:44;;;;;;;0.20;0.20;;;;;;;2.52;64.18;102614.06;5047227;28;20060;-88
2021/12/22 10:31:12;;;;;;;0.82;0.82;;;;;;;2.62;64.11;102614.44;5048160;28;20057;-89
2021/12/22 10:33:41;;;;;;;0.55;0.55;;;;;;;2.70;64.35;102607.81;5043296;28;20029;-86
2021/12/22 10:36:14;;;;;;;0.20;0.20;;;;;;;2.77;63.62;102609.84;5048648;28;20029;-88
2021/12/22 10:38:51;;;;;;;0.20;0.20;;;;;;;2.83;63.70;102614.41;5041373;28;20064;-80
2021/12/22 10:41:18;;;;;;;0.10;0.10;;;;;;;2.73;63.33;102614.06;5046164;28;20033;-89
2021/12/22 10:43:50;;;;;;;1.40;1.33;;;;;;;2.85;63.15;102608.41;5047369;28;20124;-93
2021/12/22 10:46:27;;;;;;;1.23;1.23;;;;;;;2.96;63.45;102603.63;5041370;28;20030;-87
2021/12/22 10:49:19;;;;;;;0.95;0.95;;;;;;;3.05;63.63;102600.47;5043036;28;20048;-89
2021/12/22 10:52:03;;;;;;;0.20;0.20;;;;;;;3.08;63.86;102597.97;5048874;28;20033;-83
2021/12/22 10:54:34;;;;;;;0.35;0.35;;;;;;;3.14;63.62;102590.38;5049723;28;20028;-86
2021/12/22 10:57:02;;;;;;;0.17;0.17;;;;;;;3.17;63.08;102590.47;5049222;28;20479;-87
2021/12/22 10:59:39;;;;;;;1.17;1.17;;;;;;;3.19;62.94;102594.06;5031542;28;20124;-87
2021/12/22 11:02:07;;;;;;;0.38;0.38;;;;;;;3.26;63.25;102589.06;5036262;28;20045;-84
2021/12/22 11:04:35;;;;;;;11.50;1.55;;;;;;;3.29;63.12;102594.41;5015686;28;20033;-89
2021/12/22 11:07:25;;;;;;;0.20;0.20;;;;;;;3.40;63.20;102587.84;5027193;28;20056;-89
2021/12/22 11:09:52;;;;;;;0.10;0.10;;;;;;;3.36;63.20;102580.69;5027206;28;20527;-87
2021/12/22 11:12:33;;;;;;;0.30;0.30;;;;;;;3.40;63.25;102577.34;5034696;28;20028;-89
2021/12/22 11:14:59;;;;;;;0.10;0.10;;;;;;;3.43;63.27;102577.47;5029489;28;20037;-90
2021/12/22 11:17:25;;;;;;;0.30;0.30;;;;;;;3.47;63.66;102573.25;5009207;28;20102;-89
2021/12/22 11:20:04;;;;;;;2.45;0.88;;;;;;;3.55;63.55;102566.53;5033150;28;20033;-90
2021/12/22 11:25:17;;;;;;;0.10;0.10;;;;;;;3.64;63.50;102556.41;5091772;27;21219;-88
2021/12/22 11:27:44;;;;;;;0.65;0.65;;;;;;;3.69;63.51;102548.72;5071204;28;20029;-89
2021/12/22 11:30:12;;;;;;;0.10;0.10;;;;;;;3.69;63.01;102540.84;5063016;28;20361;-85
2021/12/22 11:32:39;;;;;;;0.30;0.30;;;;;;;3.72;63.38;102540.94;5060825;28;20508;-86
2021/12/22 11:35:10;;;;;;;0.47;0.47;;;;;;;3.76;63.09;102545.47;5061042;28;20048;-86
2021/12/22 11:37:36;;;;;;;0.68;0.68;;;;;;;3.78;63.59;102538.56;5045225;28;20431;-86
2021/12/22 11:40:05;;;;;;;0.10;0.10;;;;;;;3.81;63.30;102533.41;5053271;28;20087;-84
2021/12/22 11:42:37;;;;;;;0.20;0.20;;;;;;;3.84;63.62;102537.88;5050405;28;20037;-79
2021/12/22 11:47:49;;;;;;;0.30;0.30;;;;;;;3.91;63.02;102526.75;5051438;28;20408;-83
2021/12/22 11:50:23;;;;;;;0.20;0.20;;;;;;;3.89;62.84;102513.59;5029554;28;20036;-82
2021/12/22 12:01:12;;;;;;;0.20;0.20;;;;;;;3.81;62.75;102509.81;5054845;27;20497;-80
2021/12/22 12:03:44;;;;;;;0.17;0.17;;;;;;;3.86;62.86;102505.63;5047487;28;20112;-80
2021/12/22 12:26:35;;;;;;;0.17;0.17;;;;;;;4.16;63.13;102478.66;5086412;28;20403;-84
2021/12/22 12:29:02;;;;;;;0.43;0.43;;;;;;;4.12;63.54;102486.38;5058455;28;20057;-81
2021/12/22 12:31:44;;;;;;;0.50;0.50;;;;;;;4.21;62.80;102477.06;5057872;28;20068;-79
2021/12/22 12:34:25;;;;;;;0.38;0.38;;;;;;;4.25;62.54;102488.56;5066871;28;20033;-81
2021/12/22 12:36:52;;;;;;;0.17;0.17;;;;;;;4.23;62.83;102479.72;5042002;28;20033;-84
2021/12/22 12:39:53;;;;;;;0.50;0.50;;;;;;;4.35;62.94;102480.13;5057454;28;20476;-85